Championnats Départementaux Open Hiver

Départementale

GUEBWILLER

Le Dimanche 24 Novembre 2013

Bassin de 25m

200 Nage Libre Messieurs

Séries

Nom Année Club Pays Temps Points Niv.
1 LE BRAS Florian 1994 MULHOUSE ON FRA 2:02:14 1085
2 ESCOFFIER Quentin 1998 SR COLMAR FRA 2:11:77 930
3 CARDOT Pierre 2000 MULHOUSE ON FRA 2:12:22 923
4 CORNEC Clement 1997 C.N DU FLORIVAL FRA 2:14:59 887
5 KLINGER Emeric 1999 DAUPHINS DE ST-LOUIS FRA 2:15:20 878
6 GABRIEL Ryan 1998 DAUPHINS DE ST-LOUIS FRA 2:15:92 867
7 FOURNIER Alexandre 1997 C.N DU FLORIVAL FRA 2:18:07 835
8 PETARD Nathan 1999 C.N DU FLORIVAL FRA 2:19:81 810
9 FUCHS Tristan 1998 THANN OLYMPIC N FRA 2:19:82 810
10 ZIMMERMANN Hervé 1999 C.N DU FLORIVAL FRA 2:19:94 808
11 BESSERER Thibaud 1998 C.N DU FLORIVAL FRA 2:20:50 800
12 MULLER Nicolas 1996 SR COLMAR FRA 2:20:65 798
13 DOLL Matisse 2001 MULHOUSE ON FRA 2:22:21 775
14 BRAVO Luca 1998 A.N.S D'ILLFURTH FRA 2:23:21 761
15 REICHEL Alexandre 2002 MULHOUSE ON FRA 2:25:27 733
16 HEUGEL Gautier 2000 DAUPHINS DE ST-LOUIS FRA 2:26:95 710
17 MULLER Nicolas 2001 MULHOUSE ON FRA 2:29:95 670
18 DEWULF Mickael 1995 CLUB NAUTIQUE DE LA DOLLER FRA 2:31:71 647
19 SAVARY Adrien 2000 CN ILE DU RHIN FRA 2:36:64 585
20 BOURRE Maxime 1998 CNHT WESSERLING FRA 2:38:47 563
21 DULAC Maxence 2000 DAUPHINS DE ST-LOUIS FRA 2:38:55 562
22 LUDWIG Quentin 1999 KAYSERSBERG NATATION FRA 2:39:89 546
23 LAMOLINAIRIE Quentin 1998 CN ILE DU RHIN FRA 2:40:79 535
24 ALLENBACH Lucas 2000 CNHT WESSERLING FRA 2:43:99 498
25 ARNOLD Paul 2000 C.N DU FLORIVAL FRA 2:45:18 485
26 CENTLIVRE Paulin 2002 C.N DU FLORIVAL FRA 2:45:31 484
27 PREVOST Antoine 1998 CN ILE DU RHIN FRA 2:45:77 478
28 ESTEVES Théo 2001 MULHOUSE ON FRA 2:47:86 455
29 PREVOT Noah 2001 KAYSERSBERG NATATION FRA 2:48:07 453
30 BLONDE Louis 1997 C.N DU FLORIVAL FRA 2:52:61 406
31 MASSON Nathanaël 2002 KAYSERSBERG NATATION FRA 3:05:01 289
32 MERCIER Nathan 2001 SR COLMAR FRA 3:10:99 239
33 BRAND Alban 2000 CNHT WESSERLING FRA - Disq.
34 ROCHEMONT Ludovic 1999 MULHOUSE ON FRA - Disq.